Time;durP1;ratioP1;P1;durP2;ratioP2;P2;SDS_P1;SDS_P2;PMS_P1;PMS_P2;Temp;Humidity;BMP_temperature;BMP_pressure;BME280_temperature;BME280_humidity;BME280_pressure;Samples;Min_cycle;Max_cycle;Signal;HPM_P1;HPM_P2
2021/08/28 00:00:23;;;;;;;4.70;1.88;;;;;;;;;;5050390;28;20033;-89
2021/08/28 00:02:48;;;;;;;4.80;1.73;;;;;;;;;;5051492;28;20155;-91
2021/08/28 00:05:13;;;;;;;4.53;1.58;;;;;;;;;;5055187;28;20021;-89
2021/08/28 00:07:39;;;;;;;4.20;1.67;;;;;;;;;;5055180;28;20037;-89
2021/08/28 00:10:05;;;;;;;3.80;1.75;;;;;;;;;;5055129;28;20029;-90
2021/08/28 00:12:30;;;;;;;6.95;1.77;;;;;;;;;;5055255;28;20079;-89
2021/08/28 00:14:56;;;;;;;5.95;1.92;;;;;;;;;;5054921;28;20457;-89
2021/08/28 00:17:21;;;;;;;9.52;2.20;;;;;;;;;;5056403;28;20101;-89
2021/08/28 00:19:47;;;;;;;7.70;1.90;;;;;;;;;;5056296;28;20461;-89
2021/08/28 00:22:12;;;;;;;8.75;2.00;;;;;;;;;;5055198;28;20049;-90
2021/08/28 00:24:37;;;;;;;5.97;1.90;;;;;;;;;;5055960;28;20040;-90
2021/08/28 00:27:02;;;;;;;5.70;1.48;;;;;;;;;;5055980;28;20024;-90
2021/08/28 00:29:27;;;;;;;4.45;1.50;;;;;;;;;;5054508;28;20032;-89
2021/08/28 00:31:53;;;;;;;5.85;1.80;;;;;;;;;;5054451;28;20017;-90
2021/08/28 00:34:18;;;;;;;5.10;1.98;;;;;;;;;;5055078;28;20084;-89
2021/08/28 00:36:43;;;;;;;7.85;1.50;;;;;;;;;;5054805;28;20111;-89
2021/08/28 00:39:08;;;;;;;4.55;1.60;;;;;;;;;;5055928;28;20017;-90
2021/08/28 00:41:33;;;;;;;7.20;1.95;;;;;;;;;;5054600;28;20114;-89
2021/08/28 00:43:59;;;;;;;4.70;1.83;;;;;;;;;;5054611;28;20490;-88
2021/08/28 00:46:24;;;;;;;6.15;2.08;;;;;;;;;;5054832;28;20098;-89
2021/08/28 00:48:49;;;;;;;7.38;1.90;;;;;;;;;;5055406;28;20443;-89
2021/08/28 00:51:14;;;;;;;3.10;1.52;;;;;;;;;;5054258;28;20017;-89
2021/08/28 00:53:40;;;;;;;4.93;1.73;;;;;;;;;;5053853;28;20708;-89
2021/08/28 00:56:06;;;;;;;4.43;1.65;;;;;;;;;;5054402;28;20047;-89
2021/08/28 00:58:31;;;;;;;4.80;1.65;;;;;;;;;;5087812;28;20033;-89
2021/08/28 01:01:01;;;;;;;10.07;2.58;;;;;;;;;;5053829;28;20045;-87
2021/08/28 01:03:30;;;;;;;3.50;1.80;;;;;;;;;;5054430;28;20396;-90
2021/08/28 01:06:01;;;;;;;8.43;1.88;;;;;;;;;;5055326;28;20373;-89
2021/08/28 01:08:29;;;;;;;9.25;2.08;;;;;;;;;;5055509;28;20017;-89
2021/08/28 01:11:09;;;;;;;4.97;2.00;;;;;;;;;;5053893;28;20029;-89
2021/08/28 01:13:36;;;;;;;4.40;1.70;;;;;;;;;;5054537;28;20025;-90
2021/08/28 01:16:01;;;;;;;5.78;1.90;;;;;;;;;;5054682;28;20013;-89
2021/08/28 01:18:27;;;;;;;6.25;2.10;;;;;;;;;;5054124;28;20032;-90
2021/08/28 01:21:00;;;;;;;8.27;1.80;;;;;;;;;;5054810;28;20064;-90
2021/08/28 01:23:27;;;;;;;5.45;2.10;;;;;;;;;;5053729;28;20032;-90
2021/08/28 01:25:53;;;;;;;3.33;1.63;;;;;;;;;;5052193;28;20027;-88
2021/08/28 01:28:20;;;;;;;3.10;1.55;;;;;;;;;;5053526;28;20032;-90
2021/08/28 01:30:45;;;;;;;4.78;1.90;;;;;;;;;;5053577;28;20033;-89
2021/08/28 01:33:12;;;;;;;4.18;1.90;;;;;;;;;;5052979;28;20023;-89
2021/08/28 01:35:37;;;;;;;9.68;2.15;;;;;;;;;;5053666;28;20021;-89
2021/08/28 01:38:03;;;;;;;8.30;2.00;;;;;;;;;;5053481;28;20013;-90
2021/08/28 01:40:30;;;;;;;8.57;2.10;;;;;;;;;;5053044;28;20028;-89
2021/08/28 01:42:55;;;;;;;13.13;2.08;;;;;;;;;;5053127;28;20033;-89
2021/08/28 01:45:24;;;;;;;8.93;2.47;;;;;;;;;;5053298;28;20043;-89
2021/08/28 01:47:50;;;;;;;14.30;2.75;;;;;;;;;;5052855;28;20033;-90
2021/08/28 01:50:18;;;;;;;4.50;2.00;;;;;;;;;;5053211;28;20079;-89
2021/08/28 01:52:43;;;;;;;7.22;2.35;;;;;;;;;;5054538;28;20084;-89
2021/08/28 01:55:08;;;;;;;5.32;2.20;;;;;;;;;;5053724;28;20040;-89
2021/08/28 01:57:35;;;;;;;6.05;2.25;;;;;;;;;;5054180;28;20107;-89
2021/08/28 02:00:01;;;;;;;7.28;2.70;;;;;;;;;;5053168;28;20507;-89
2021/08/28 02:02:26;;;;;;;4.95;2.13;;;;;;;;;;5053327;28;20031;-90
2021/08/28 02:04:51;;;;;;;11.77;2.75;;;;;;;;;;5054200;28;20017;-89
2021/08/28 02:07:20;;;;;;;9.13;2.60;;;;;;;;;;5052934;28;20040;-90
2021/08/28 02:10:05;;;;;;;5.78;3.20;;;;;;;;;;5052821;28;20021;-89
2021/08/28 02:12:35;;;;;;;5.43;2.33;;;;;;;;;;5039285;28;20100;-89
2021/08/28 02:15:04;;;;;;;10.35;3.05;;;;;;;;;;5052184;28;20407;-90
2021/08/28 02:17:29;;;;;;;9.80;2.25;;;;;;;;;;5052274;28;20028;-90
2021/08/28 02:20:01;;;;;;;8.88;2.80;;;;;;;;;;5052763;28;20021;-89
2021/08/28 02:22:31;;;;;;;9.35;2.90;;;;;;;;;;5052822;28;20032;-90
2021/08/28 02:25:07;;;;;;;8.07;2.90;;;;;;;;;;5052586;28;20036;-89
2021/08/28 02:27:38;;;;;;;7.18;2.80;;;;;;;;;;5051574;28;20024;-90
2021/08/28 02:30:06;;;;;;;7.57;2.88;;;;;;;;;;5053635;28;20017;-89
2021/08/28 02:32:32;;;;;;;13.32;3.10;;;;;;;;;;5052462;28;20017;-89
2021/08/28 02:34:59;;;;;;;4.25;2.60;;;;;;;;;;5052690;28;20096;-89
2021/08/28 02:37:25;;;;;;;10.32;2.75;;;;;;;;;;5052610;28;20021;-90
2021/08/28 02:39:50;;;;;;;9.30;2.63;;;;;;;;;;5053473;28;20024;-89
2021/08/28 02:42:16;;;;;;;11.85;3.00;;;;;;;;;;5052207;28;20037;-90
2021/08/28 02:44:43;;;;;;;5.45;2.70;;;;;;;;;;5051821;28;20021;-90
2021/08/28 02:47:09;;;;;;;8.18;3.55;;;;;;;;;;5052240;28;20025;-90
2021/08/28 02:49:36;;;;;;;12.38;3.53;;;;;;;;;;5052240;28;20031;-90
2021/08/28 02:52:02;;;;;;;8.63;3.53;;;;;;;;;;5052079;28;20480;-90
2021/08/28 02:54:28;;;;;;;8.10;3.45;;;;;;;;;;5052033;28;20034;-89
2021/08/28 02:56:53;;;;;;;5.57;3.17;;;;;;;;;;5053323;28;20017;-90
2021/08/28 02:59:19;;;;;;;8.48;2.72;;;;;;;;;;5052265;28;20063;-90
2021/08/28 03:01:45;;;;;;;15.30;4.22;;;;;;;;;;5052204;28;20017;-90
2021/08/28 03:04:11;;;;;;;11.55;3.47;;;;;;;;;;5052185;28;20434;-89
2021/08/28 03:06:37;;;;;;;7.50;3.20;;;;;;;;;;5052883;28;20029;-90
2021/08/28 03:09:02;;;;;;;9.75;3.35;;;;;;;;;;5052838;28;20029;-90
2021/08/28 03:11:27;;;;;;;10.90;3.08;;;;;;;;;;5052080;28;20107;-90
2021/08/28 03:13:53;;;;;;;11.13;3.17;;;;;;;;;;5052020;28;20013;-89
2021/08/28 03:16:20;;;;;;;10.40;3.40;;;;;;;;;;5051902;28;20120;-89
2021/08/28 03:18:46;;;;;;;8.52;3.40;;;;;;;;;;5052073;28;20017;-89
2021/08/28 03:21:12;;;;;;;5.40;2.95;;;;;;;;;;5053350;28;20374;-89
2021/08/28 03:23:39;;;;;;;7.32;3.15;;;;;;;;;;5053077;28;20086;-89
2021/08/28 03:26:04;;;;;;;9.30;3.60;;;;;;;;;;5051986;28;20013;-89
2021/08/28 03:28:31;;;;;;;11.30;3.50;;;;;;;;;;5051716;28;20024;-90
2021/08/28 03:30:56;;;;;;;10.05;4.10;;;;;;;;;;5051775;28;20452;-89
2021/08/28 03:33:22;;;;;;;11.45;3.70;;;;;;;;;;5051880;28;20048;-90
2021/08/28 03:35:48;;;;;;;8.10;3.42;;;;;;;;;;5053029;28;20507;-90
2021/08/28 03:38:14;;;;;;;8.30;3.83;;;;;;;;;;5052251;28;20116;-90
2021/08/28 03:40:39;;;;;;;10.00;3.58;;;;;;;;;;5055598;28;20091;-90
2021/08/28 03:43:05;;;;;;;15.38;4.13;;;;;;;;;;5055554;28;20071;-89
2021/08/28 03:45:30;;;;;;;8.48;3.72;;;;;;;;;;5056052;28;20021;-90
2021/08/28 03:47:56;;;;;;;10.40;3.70;;;;;;;;;;5055556;28;20075;-90
2021/08/28 03:50:22;;;;;;;9.63;3.50;;;;;;;;;;5055738;28;20040;-90
2021/08/28 03:52:47;;;;;;;9.85;4.30;;;;;;;;;;5055582;28;20025;-89
2021/08/28 03:55:12;;;;;;;16.77;4.72;;;;;;;;;;5055418;28;20055;-90
2021/08/28 03:57:37;;;;;;;10.68;4.05;;;;;;;;;;5056749;28;20044;-90
2021/08/28 04:00:12;;;;;;;10.13;4.30;;;;;;;;;;5055241;28;20411;-89
2021/08/28 04:02:37;;;;;;;7.38;3.95;;;;;;;;;;5056707;28;20021;-89
2021/08/28 04:05:02;;;;;;;9.98;4.07;;;;;;;;;;5055028;28;20025;-90
2021/08/28 04:07:28;;;;;;;10.45;3.50;;;;;;;;;;5055215;28;20025;-90
2021/08/28 04:09:53;;;;;;;11.63;4.78;;;;;;;;;;5055103;28;20108;-90
2021/08/28 04:12:18;;;;;;;13.65;4.43;;;;;;;;;;5055321;28;20305;-90
2021/08/28 04:14:43;;;;;;;12.05;4.30;;;;;;;;;;5054834;28;20028;-89
2021/08/28 04:17:08;;;;;;;9.93;4.63;;;;;;;;;;5055069;28;20021;-90
2021/08/28 04:19:34;;;;;;;9.60;3.95;;;;;;;;;;5056187;28;20017;-90
2021/08/28 04:21:59;;;;;;;9.45;3.92;;;;;;;;;;5054806;28;20021;-89
2021/08/28 04:24:24;;;;;;;11.43;4.85;;;;;;;;;;5054989;28;20027;-90
2021/08/28 04:26:49;;;;;;;7.38;4.22;;;;;;;;;;5054662;28;20027;-90
2021/08/28 04:29:15;;;;;;;11.57;4.50;;;;;;;;;;5054787;28;20105;-89
2021/08/28 04:31:40;;;;;;;12.32;4.38;;;;;;;;;;5054781;28;20028;-89
2021/08/28 04:34:05;;;;;;;14.57;5.40;;;;;;;;;;5054418;28;20032;-89
2021/08/28 04:36:31;;;;;;;11.55;4.97;;;;;;;;;;5054905;28;20388;-90
2021/08/28 04:38:56;;;;;;;12.70;4.47;;;;;;;;;;5055891;28;20017;-90
2021/08/28 04:41:21;;;;;;;12.77;5.05;;;;;;;;;;5054385;28;20464;-90
2021/08/28 04:43:46;;;;;;;13.25;5.15;;;;;;;;;;5054690;28;20032;-89
2021/08/28 04:46:12;;;;;;;12.18;4.85;;;;;;;;;;5054532;28;20411;-90
2021/08/28 04:48:37;;;;;;;13.77;4.13;;;;;;;;;;5054743;28;20029;-90
2021/08/28 04:51:02;;;;;;;13.30;4.78;;;;;;;;;;5053240;28;20017;-89
2021/08/28 04:53:27;;;;;;;10.05;4.53;;;;;;;;;;5054459;28;20071;-89
2021/08/28 04:55:53;;;;;;;11.80;4.20;;;;;;;;;;5055403;28;20013;-90
2021/08/28 04:58:18;;;;;;;13.60;3.88;;;;;;;;;;5054422;28;20047;-90
2021/08/28 05:00:43;;;;;;;11.07;4.80;;;;;;;;;;5053689;28;20101;-90
2021/08/28 05:03:08;;;;;;;6.35;3.50;;;;;;;;;;5054267;28;20024;-89
2021/08/28 05:05:34;;;;;;;9.38;4.47;;;;;;;;;;5054329;28;20435;-89
2021/08/28 05:07:59;;;;;;;10.75;4.60;;;;;;;;;;5055434;28;20025;-90
2021/08/28 05:10:24;;;;;;;15.00;5.00;;;;;;;;;;5054171;28;20029;-90
2021/08/28 05:12:49;;;;;;;15.52;5.15;;;;;;;;;;5054419;28;20131;-90
2021/08/28 05:15:15;;;;;;;13.38;5.38;;;;;;;;;;5055132;28;20017;-89
2021/08/28 05:17:40;;;;;;;10.05;4.60;;;;;;;;;;5054096;28;20013;-90
2021/08/28 05:20:05;;;;;;;11.82;5.40;;;;;;;;;;5053656;28;20032;-89
2021/08/28 05:22:31;;;;;;;10.13;4.38;;;;;;;;;;5054016;28;20366;-90
2021/08/28 05:24:56;;;;;;;18.92;4.85;;;;;;;;;;5055186;28;20017;-90
2021/08/28 05:27:21;;;;;;;15.25;4.78;;;;;;;;;;5054011;28;20059;-90
2021/08/28 05:29:46;;;;;;;13.38;4.95;;;;;;;;;;5054329;28;20021;-89
2021/08/28 05:32:12;;;;;;;13.25;4.85;;;;;;;;;;5054902;28;20009;-90
2021/08/28 05:34:37;;;;;;;12.25;4.90;;;;;;;;;;5054741;28;20385;-90
2021/08/28 05:37:02;;;;;;;11.95;4.93;;;;;;;;;;5055068;28;20028;-89
2021/08/28 05:39:30;;;;;;;11.77;5.57;;;;;;;;;;5053557;28;20052;-90
2021/08/28 05:41:55;;;;;;;8.35;4.40;;;;;;;;;;5054727;28;20078;-90
2021/08/28 05:44:20;;;;;;;14.38;4.78;;;;;;;;;;5053308;28;20080;-88
2021/08/28 05:46:45;;;;;;;16.02;5.13;;;;;;;;;;5054911;28;20104;-89
2021/08/28 05:49:10;;;;;;;13.70;5.07;;;;;;;;;;5053281;28;20498;-89
2021/08/28 05:51:36;;;;;;;17.42;5.05;;;;;;;;;;5053184;28;20017;-90
2021/08/28 05:54:01;;;;;;;11.48;5.15;;;;;;;;;;5053156;28;20025;-90
2021/08/28 05:56:26;;;;;;;13.40;5.32;;;;;;;;;;5053996;28;20043;-90
2021/08/28 05:58:51;;;;;;;13.63;4.20;;;;;;;;;;5053225;28;20049;-89
2021/08/28 06:01:17;;;;;;;13.50;4.97;;;;;;;;;;5054258;28;20152;-90
2021/08/28 06:03:42;;;;;;;13.23;5.22;;;;;;;;;;5054507;28;20017;-90
2021/08/28 06:06:07;;;;;;;14.93;5.35;;;;;;;;;;5053088;28;20017;-90
2021/08/28 06:08:32;;;;;;;12.30;4.95;;;;;;;;;;5052880;28;20074;-90
2021/08/28 06:10:57;;;;;;;15.63;5.63;;;;;;;;;;5053049;28;20017;-90
2021/08/28 06:13:23;;;;;;;11.30;5.00;;;;;;;;;;5052764;28;20025;-89
2021/08/28 06:15:48;;;;;;;16.50;5.03;;;;;;;;;;5054053;28;20059;-90
2021/08/28 06:18:13;;;;;;;15.32;5.53;;;;;;;;;;5052677;28;20013;-89
2021/08/28 06:20:38;;;;;;;13.77;5.82;;;;;;;;;;5053899;28;20024;-88
2021/08/28 06:23:03;;;;;;;14.48;4.90;;;;;;;;;;5052201;28;20024;-90
2021/08/28 06:25:28;;;;;;;16.27;5.95;;;;;;;;;;5052381;28;20085;-89
2021/08/28 06:27:54;;;;;;;14.45;5.82;;;;;;;;;;5053977;28;20091;-89
2021/08/28 06:30:19;;;;;;;16.35;5.47;;;;;;;;;;5052140;28;20031;-89
2021/08/28 06:32:44;;;;;;;12.38;4.93;;;;;;;;;;5052529;28;20017;-90
2021/08/28 06:35:09;;;;;;;18.20;5.85;;;;;;;;;;5052642;28;20017;-89
2021/08/28 06:37:35;;;;;;;14.18;5.57;;;;;;;;;;5052176;28;20020;-89
2021/08/28 06:40:00;;;;;;;13.93;5.93;;;;;;;;;;5052357;28;20100;-90
2021/08/28 06:42:25;;;;;;;12.55;4.53;;;;;;;;;;5053590;28;20124;-90
2021/08/28 06:44:50;;;;;;;16.50;5.25;;;;;;;;;;5051864;28;20499;-89
2021/08/28 06:47:15;;;;;;;17.80;5.40;;;;;;;;;;5052180;28;20029;-90
2021/08/28 06:49:41;;;;;;;16.48;5.25;;;;;;;;;;5053433;28;20020;-90
2021/08/28 06:52:06;;;;;;;13.02;5.45;;;;;;;;;;5051597;28;20532;-90
2021/08/28 06:54:31;;;;;;;11.18;5.93;;;;;;;;;;5051484;28;20020;-90
2021/08/28 06:56:56;;;;;;;17.30;5.88;;;;;;;;;;5051261;28;20032;-90
2021/08/28 06:59:22;;;;;;;20.73;6.00;;;;;;;;;;5051489;28;20025;-89
2021/08/28 07:01:47;;;;;;;18.02;5.35;;;;;;;;;;5050529;28;20025;-89
2021/08/28 07:04:12;;;;;;;12.30;5.65;;;;;;;;;;5050991;28;20491;-89
2021/08/28 07:06:37;;;;;;;11.82;5.22;;;;;;;;;;5051025;28;20404;-89
2021/08/28 07:09:03;;;;;;;16.08;5.72;;;;;;;;;;5051051;28;20118;-88
2021/08/28 07:11:28;;;;;;;19.40;6.57;;;;;;;;;;5050546;28;20468;-88
2021/08/28 07:13:53;;;;;;;13.85;5.22;;;;;;;;;;5049271;28;20017;-88
2021/08/28 07:16:19;;;;;;;14.85;6.00;;;;;;;;;;5047373;28;20071;-89
2021/08/28 07:18:44;;;;;;;16.73;6.07;;;;;;;;;;5051702;28;20566;-89
2021/08/28 07:21:10;;;;;;;12.88;5.28;;;;;;;;;;5052914;28;20027;-89
2021/08/28 07:23:35;;;;;;;11.73;5.13;;;;;;;;;;5050653;28;20024;-89
2021/08/28 07:26:00;;;;;;;11.88;5.18;;;;;;;;;;5051851;28;20028;-89
2021/08/28 07:28:25;;;;;;;18.63;5.30;;;;;;;;;;5051281;28;20469;-89
2021/08/28 07:30:51;;;;;;;13.13;5.47;;;;;;;;;;5051052;28;20104;-89
2021/08/28 07:33:16;;;;;;;12.85;5.28;;;;;;;;;;5050694;28;20029;-88
2021/08/28 07:35:41;;;;;;;15.20;5.68;;;;;;;;;;5050677;28;20017;-88
2021/08/28 07:38:06;;;;;;;12.27;4.75;;;;;;;;;;5049962;28;20369;-88
2021/08/28 07:40:31;;;;;;;12.73;5.00;;;;;;;;;;5050697;28;20028;-89
2021/08/28 07:42:58;;;;;;;15.23;5.00;;;;;;;;;;5051859;28;20103;-88
2021/08/28 07:45:23;;;;;;;11.15;5.43;;;;;;;;;;5042415;28;20036;-88
2021/08/28 07:47:49;;;;;;;8.18;4.85;;;;;;;;;;5049970;28;20409;-88
2021/08/28 07:50:14;;;;;;;10.93;4.43;;;;;;;;;;5051550;28;20150;-89
2021/08/28 07:52:41;;;;;;;12.70;4.45;;;;;;;;;;5050158;28;20361;-89
2021/08/28 07:55:07;;;;;;;10.88;4.20;;;;;;;;;;5049046;28;20480;-89
2021/08/28 07:57:32;;;;;;;8.15;3.90;;;;;;;;;;5050929;28;20017;-86
2021/08/28 07:59:57;;;;;;;11.43;4.05;;;;;;;;;;5050359;28;20487;-89
2021/08/28 08:02:22;;;;;;;10.18;3.85;;;;;;;;;;5049307;28;20013;-89
2021/08/28 08:04:48;;;;;;;9.68;4.00;;;;;;;;;;5048210;28;20036;-89
2021/08/28 08:07:13;;;;;;;7.38;4.22;;;;;;;;;;5051967;28;20021;-89
2021/08/28 08:09:39;;;;;;;9.82;4.13;;;;;;;;;;5051075;28;20032;-89
2021/08/28 08:12:04;;;;;;;9.07;4.25;;;;;;;;;;5053889;28;20017;-88
2021/08/28 08:14:29;;;;;;;8.50;4.40;;;;;;;;;;5051718;28;20029;-88
2021/08/28 08:16:54;;;;;;;11.90;4.15;;;;;;;;;;5051769;28;20465;-89
2021/08/28 08:19:20;;;;;;;9.60;4.13;;;;;;;;;;5057145;28;20025;-88
2021/08/28 08:21:45;;;;;;;7.55;4.53;;;;;;;;;;5057592;28;20040;-88
2021/08/28 08:24:10;;;;;;;10.02;3.80;;;;;;;;;;5053457;28;20155;-89
2021/08/28 08:26:35;;;;;;;12.60;4.05;;;;;;;;;;5052482;28;20075;-88
2021/08/28 08:29:00;;;;;;;11.18;4.22;;;;;;;;;;5053887;28;20464;-88
2021/08/28 08:31:26;;;;;;;11.48;4.35;;;;;;;;;;5052817;28;20028;-88
2021/08/28 08:33:51;;;;;;;10.00;4.10;;;;;;;;;;5051759;28;20040;-88
2021/08/28 08:36:16;;;;;;;7.35;4.13;;;;;;;;;;5055066;28;20047;-86
2021/08/28 08:38:41;;;;;;;9.55;4.10;;;;;;;;;;5053845;28;20028;-88
2021/08/28 08:41:07;;;;;;;17.52;4.65;;;;;;;;;;5053029;28;20017;-86
2021/08/28 08:43:33;;;;;;;13.50;4.03;;;;;;;;;;5056064;28;20035;-87
2021/08/28 08:45:58;;;;;;;6.55;3.55;;;;;;;;;;5053586;28;20055;-87
2021/08/28 08:48:24;;;;;;;8.02;3.70;;;;;;;;;;5056795;28;20060;-88
2021/08/28 08:50:49;;;;;;;7.97;3.63;;;;;;;;;;5053608;28;20048;-87
2021/08/28 08:53:15;;;;;;;7.95;3.30;;;;;;;;;;5052739;28;20021;-87
2021/08/28 08:55:41;;;;;;;7.93;3.60;;;;;;;;;;5053458;28;20021;-88
2021/08/28 08:58:06;;;;;;;7.57;3.33;;;;;;;;;;5056447;28;20043;-87
2021/08/28 09:00:32;;;;;;;11.88;4.93;;;;;;;;;;5054242;28;20029;-87
2021/08/28 09:02:57;;;;;;;8.95;3.47;;;;;;;;;;5052998;28;20108;-87
2021/08/28 09:05:22;;;;;;;12.48;4.00;;;;;;;;;;5053734;28;20031;-88
2021/08/28 09:07:48;;;;;;;7.70;3.55;;;;;;;;;;5055700;28;20379;-87
2021/08/28 09:10:13;;;;;;;6.43;3.13;;;;;;;;;;5052578;28;20051;-88
2021/08/28 09:12:41;;;;;;;7.80;3.22;;;;;;;;;;5052221;28;20412;-87
2021/08/28 09:15:08;;;;;;;7.65;3.42;;;;;;;;;;5054129;28;20134;-87
2021/08/28 09:17:34;;;;;;;6.65;2.88;;;;;;;;;;5052358;28;20628;-87
2021/08/28 09:20:00;;;;;;;7.00;3.72;;;;;;;;;;5053144;28;20021;-88
2021/08/28 09:22:27;;;;;;;7.28;3.40;;;;;;;;;;5052892;28;20358;-88
2021/08/28 09:24:54;;;;;;;7.63;3.25;;;;;;;;;;5053903;28;20534;-85
2021/08/28 09:27:32;;;;;;;9.50;3.38;;;;;;;;;;5053691;28;20031;-86
2021/08/28 09:29:58;;;;;;;9.35;3.17;;;;;;;;;;5051760;28;20028;-88
2021/08/28 09:32:23;;;;;;;11.18;3.55;;;;;;;;;;5051843;28;20535;-89
2021/08/28 09:34:48;;;;;;;9.25;3.40;;;;;;;;;;5053745;28;20503;-87
2021/08/28 09:37:14;;;;;;;13.57;3.75;;;;;;;;;;5050619;28;20025;-89
2021/08/28 09:39:40;;;;;;;11.20;3.60;;;;;;;;;;5052181;28;20029;-88
2021/08/28 09:42:06;;;;;;;9.82;3.55;;;;;;;;;;5045672;28;20113;-88
2021/08/28 09:44:35;;;;;;;8.43;3.95;;;;;;;;;;5052517;28;20021;-87
2021/08/28 09:47:07;;;;;;;7.55;3.38;;;;;;;;;;5053890;28;20032;-88
2021/08/28 09:49:33;;;;;;;9.07;3.25;;;;;;;;;;5055980;28;20459;-88
2021/08/28 09:51:58;;;;;;;6.80;3.25;;;;;;;;;;5055326;28;20096;-88
2021/08/28 09:54:24;;;;;;;7.97;3.47;;;;;;;;;;5054922;28;20056;-89
2021/08/28 09:56:59;;;;;;;12.05;2.88;;;;;;;;;;5053590;28;20044;-89
2021/08/28 09:59:25;;;;;;;10.90;3.55;;;;;;;;;;5053505;28;20041;-89
2021/08/28 10:01:50;;;;;;;4.78;2.38;;;;;;;;;;5045680;28;20028;-89
2021/08/28 10:04:15;;;;;;;6.20;2.72;;;;;;;;;;5053334;28;20094;-89
2021/08/28 10:06:47;;;;;;;9.43;3.08;;;;;;;;;;5053712;28;20024;-88
2021/08/28 10:09:13;;;;;;;10.90;3.00;;;;;;;;;;5054673;28;20486;-89
2021/08/28 10:11:38;;;;;;;8.85;3.30;;;;;;;;;;5051470;28;20036;-88
2021/08/28 10:14:03;;;;;;;9.55;3.35;;;;;;;;;;5051696;28;20017;-88
2021/08/28 10:16:29;;;;;;;7.68;3.05;;;;;;;;;;5046722;28;20025;-87
2021/08/28 10:18:54;;;;;;;10.52;2.88;;;;;;;;;;5050293;28;20019;-87
2021/08/28 10:21:19;;;;;;;6.88;3.20;;;;;;;;;;5048631;28;20025;-85
2021/08/28 10:23:49;;;;;;;10.13;3.30;;;;;;;;;;5050887;28;20526;-86
2021/08/28 10:26:14;;;;;;;8.15;3.42;;;;;;;;;;5051154;28;20025;-87
2021/08/28 10:28:40;;;;;;;5.85;3.00;;;;;;;;;;5052894;28;20414;-86
2021/08/28 10:31:07;;;;;;;6.72;3.35;;;;;;;;;;5050728;28;20452;-87
2021/08/28 10:33:32;;;;;;;7.35;2.95;;;;;;;;;;5050884;28;20111;-87
2021/08/28 10:35:58;;;;;;;6.25;2.70;;;;;;;;;;5052889;28;20060;-88
2021/08/28 10:38:23;;;;;;;6.95;3.35;;;;;;;;;;5051456;28;20067;-88
2021/08/28 10:40:53;;;;;;;8.55;2.78;;;;;;;;;;5051672;28;20492;-87
2021/08/28 10:43:19;;;;;;;5.18;3.03;;;;;;;;;;5044246;28;20028;-87
2021/08/28 10:45:46;;;;;;;7.55;2.78;;;;;;;;;;5051223;28;20389;-87
2021/08/28 10:48:13;;;;;;;6.50;3.05;;;;;;;;;;5051733;28;20036;-87
2021/08/28 10:50:39;;;;;;;5.30;3.58;;;;;;;;;;5051059;28;20025;-87
2021/08/28 10:53:05;;;;;;;7.90;3.13;;;;;;;;;;5051860;28;20005;-89
2021/08/28 10:55:58;;;;;;;7.70;3.33;;;;;;;;;;5050978;28;20384;-90
2021/08/28 10:58:24;;;;;;;9.13;3.13;;;;;;;;;;5054683;28;20035;-90
2021/08/28 11:00:54;;;;;;;5.95;3.00;;;;;;;;;;5055383;28;20021;-89
2021/08/28 11:03:27;;;;;;;11.18;3.22;;;;;;;;;;5051067;28;20848;-89
2021/08/28 11:06:11;;;;;;;8.27;3.33;;;;;;;;;;5051524;28;20070;-89
2021/08/28 11:08:53;;;;;;;10.02;4.00;;;;;;;;;;5052143;28;20067;-89
2021/08/28 11:11:19;;;;;;;5.68;2.65;;;;;;;;;;5051366;28;20044;-89
2021/08/28 11:13:54;;;;;;;4.35;2.78;;;;;;;;;;5056494;28;20079;-90
2021/08/28 11:16:40;;;;;;;7.28;2.53;;;;;;;;;;5051359;28;20357;-90
2021/08/28 11:19:05;;;;;;;8.70;3.28;;;;;;;;;;5047272;28;20461;-89
2021/08/28 11:21:47;;;;;;;11.02;3.13;;;;;;;;;;5051410;28;20115;-88
2021/08/28 11:24:15;;;;;;;8.73;2.78;;;;;;;;;;5048678;28;20571;-90
2021/08/28 11:26:40;;;;;;;6.10;3.20;;;;;;;;;;5051446;28;20091;-88
2021/08/28 11:29:17;;;;;;;5.38;2.60;;;;;;;;;;5051795;28;20021;-91
2021/08/28 11:31:44;;;;;;;5.07;3.30;;;;;;;;;;5052805;28;20032;-89
2021/08/28 11:34:09;;;;;;;6.05;3.28;;;;;;;;;;5049339;28;20013;-90
2021/08/28 11:36:34;;;;;;;5.82;2.90;;;;;;;;;;5051604;28;20353;-91
2021/08/28 11:38:59;;;;;;;6.70;3.30;;;;;;;;;;5052111;28;20502;-89
2021/08/28 11:41:25;;;;;;;8.32;2.80;;;;;;;;;;5051351;28;20066;-91
2021/08/28 11:43:52;;;;;;;8.57;3.28;;;;;;;;;;5085766;28;20028;-90
2021/08/28 11:46:21;;;;;;;5.78;3.33;;;;;;;;;;5051960;28;20044;-90
2021/08/28 11:48:47;;;;;;;7.03;3.40;;;;;;;;;;5052143;28;20029;-89
2021/08/28 11:51:20;;;;;;;8.30;3.72;;;;;;;;;;5051475;28;20021;-90
2021/08/28 11:53:46;;;;;;;6.10;2.88;;;;;;;;;;5051877;28;20384;-90
2021/08/28 11:56:12;;;;;;;5.78;3.00;;;;;;;;;;5051733;28;20013;-90
2021/08/28 11:58:46;;;;;;;8.40;3.20;;;;;;;;;;5051875;28;20024;-90
2021/08/28 12:01:22;;;;;;;7.13;2.78;;;;;;;;;;5055166;28;20076;-91
2021/08/28 12:03:47;;;;;;;6.05;3.03;;;;;;;;;;5055897;28;20027;-91
2021/08/28 12:06:12;;;;;;;5.72;2.75;;;;;;;;;;5056668;28;20103;-90
2021/08/28 12:08:40;;;;;;;5.13;2.50;;;;;;;;;;5056881;28;20481;-91
2021/08/28 12:11:06;;;;;;;6.25;2.95;;;;;;;;;;5055593;28;20486;-91
2021/08/28 12:13:44;;;;;;;7.13;3.05;;;;;;;;;;5055494;28;20020;-90
2021/08/28 12:16:09;;;;;;;6.40;3.25;;;;;;;;;;5055247;28;20028;-89
2021/08/28 12:18:34;;;;;;;5.50;3.08;;;;;;;;;;5055240;28;20526;-90
2021/08/28 12:21:09;;;;;;;6.80;2.88;;;;;;;;;;5055681;28;20021;-90
2021/08/28 12:23:35;;;;;;;9.57;2.95;;;;;;;;;;5054633;28;20492;-90
2021/08/28 12:26:11;;;;;;;8.23;2.75;;;;;;;;;;5055398;28;20032;-90
2021/08/28 12:28:36;;;;;;;6.18;2.60;;;;;;;;;;5056312;28;20040;-90
2021/08/28 12:31:03;;;;;;;6.68;2.85;;;;;;;;;;5055311;28;20027;-90
2021/08/28 12:33:28;;;;;;;4.20;2.42;;;;;;;;;;5055149;28;20032;-89
2021/08/28 12:35:54;;;;;;;5.40;2.35;;;;;;;;;;5055091;28;20021;-90
2021/08/28 12:38:19;;;;;;;5.57;2.85;;;;;;;;;;5054745;28;20071;-90
2021/08/28 12:40:44;;;;;;;5.20;2.60;;;;;;;;;;5054976;28;20025;-90
2021/08/28 12:43:10;;;;;;;6.28;3.15;;;;;;;;;;5056032;28;20016;-90
2021/08/28 12:45:36;;;;;;;6.10;3.08;;;;;;;;;;5055000;28;20526;-90
2021/08/28 12:48:03;;;;;;;9.60;3.20;;;;;;;;;;5055664;28;20025;-90
2021/08/28 12:50:29;;;;;;;8.38;2.92;;;;;;;;;;5054645;28;20146;-90
2021/08/28 12:53:03;;;;;;;7.13;3.65;;;;;;;;;;5055013;28;20021;-90
2021/08/28 12:55:33;;;;;;;8.40;3.47;;;;;;;;;;5054535;28;20075;-89
2021/08/28 12:58:03;;;;;;;7.38;3.13;;;;;;;;;;5054243;28;20051;-90
2021/08/28 13:00:28;;;;;;;7.80;3.58;;;;;;;;;;5054269;28;20120;-90
2021/08/28 13:02:54;;;;;;;5.57;3.42;;;;;;;;;;5054413;28;20445;-89
2021/08/28 13:05:27;;;;;;;5.63;3.60;;;;;;;;;;5054510;28;20108;-90
2021/08/28 13:07:53;;;;;;;7.43;3.28;;;;;;;;;;5054331;28;20404;-90
2021/08/28 13:10:19;;;;;;;8.52;3.65;;;;;;;;;;5053884;28;20036;-90
2021/08/28 13:12:54;;;;;;;7.47;3.05;;;;;;;;;;5054821;28;20020;-89
2021/08/28 13:15:28;;;;;;;7.05;3.53;;;;;;;;;;5053996;28;20052;-90
2021/08/28 13:18:12;;;;;;;7.88;3.30;;;;;;;;;;5055608;28;20021;-90
2021/08/28 13:20:49;;;;;;;6.85;3.75;;;;;;;;;;5040796;28;20031;-89
2021/08/28 13:23:30;;;;;;;8.20;3.40;;;;;;;;;;5053080;28;20087;-90
2021/08/28 13:26:05;;;;;;;9.32;3.63;;;;;;;;;;5055029;28;20024;-90
2021/08/28 13:28:32;;;;;;;7.68;3.47;;;;;;;;;;5053857;28;20036;-90
2021/08/28 13:31:17;;;;;;;11.13;4.00;;;;;;;;;;5053727;28;20074;-90
2021/08/28 13:33:42;;;;;;;6.50;3.15;;;;;;;;;;5053893;28;20017;-89
2021/08/28 13:36:07;;;;;;;6.75;3.28;;;;;;;;;;5054859;28;20031;-90
2021/08/28 13:38:33;;;;;;;7.38;3.08;;;;;;;;;;5053832;28;20021;-90
2021/08/28 13:40:59;;;;;;;7.07;3.08;;;;;;;;;;5053653;28;20380;-90
2021/08/28 13:43:26;;;;;;;5.93;3.05;;;;;;;;;;5053792;28;20017;-89
2021/08/28 13:45:52;;;;;;;7.72;3.05;;;;;;;;;;5053714;28;20021;-90
2021/08/28 13:48:17;;;;;;;10.48;3.80;;;;;;;;;;5054777;28;20820;-89
2021/08/28 13:50:42;;;;;;;6.75;3.03;;;;;;;;;;5053491;28;20028;-90
2021/08/28 13:53:09;;;;;;;6.00;3.03;;;;;;;;;;5053093;28;20114;-89
2021/08/28 13:55:34;;;;;;;6.20;3.10;;;;;;;;;;5053454;28;20376;-89
2021/08/28 13:58:00;;;;;;;9.40;3.30;;;;;;;;;;5054304;28;20020;-89
2021/08/28 14:00:25;;;;;;;8.70;3.95;;;;;;;;;;5053510;28;20033;-90
2021/08/28 14:02:50;;;;;;;7.97;3.88;;;;;;;;;;5053268;28;20017;-90
2021/08/28 14:05:16;;;;;;;7.38;3.47;;;;;;;;;;5053216;28;20108;-90
2021/08/28 14:07:42;;;;;;;5.57;3.40;;;;;;;;;;5054384;28;20052;-90
2021/08/28 14:10:07;;;;;;;6.10;3.00;;;;;;;;;;5054188;28;20056;-90
2021/08/28 14:12:33;;;;;;;11.85;3.38;;;;;;;;;;5054294;28;20021;-90
2021/08/28 14:14:58;;;;;;;5.82;3.00;;;;;;;;;;5052939;28;20047;-90
2021/08/28 14:17:24;;;;;;;8.88;3.05;;;;;;;;;;5052109;28;20021;-90
2021/08/28 14:19:50;;;;;;;9.00;4.22;;;;;;;;;;5052175;28;20036;-90
2021/08/28 14:22:15;;;;;;;7.85;3.20;;;;;;;;;;5051650;28;20025;-90
2021/08/28 14:24:43;;;;;;;13.20;4.05;;;;;;;;;;5051740;28;20025;-90
2021/08/28 14:27:08;;;;;;;5.82;2.70;;;;;;;;;;5051395;28;20021;-90
2021/08/28 14:29:35;;;;;;;6.60;3.00;;;;;;;;;;5051557;28;20020;-90
2021/08/28 14:32:00;;;;;;;7.28;3.30;;;;;;;;;;5051755;28;20024;-90
2021/08/28 14:34:26;;;;;;;11.43;3.10;;;;;;;;;;5052703;28;20016;-90